EGLLEGLC

Guest
Details From EGLL - London Heathrow
To EGLC - London City
Flight Number -
Tags Routegen
Created
Modified
Stats Distance 20 nm / 37 km
Max Altitude 0 ft / 0 m
Waypoints 2
Social Downloads 11
Likes 0
Share

Download

Looking for another format? Having issues loading an existing format? Contact us
Advertisement - Login to hide

Notes

None

Route

EGLL EGLC

ID Type Via Altitude (ft/m) Position (lat/lon) Dist (leg/tot) Name
O EGLL APT - 0 / 0 51.47747 / -0.48963 - / 0 nm
O EGLC APT - 0 / 0 51.50558 / 0.04414 20 / 20 nm

Altitude Profile

Advertisement - Login to hide

EGLL

Details ICAO EGLL (LHR)
Name London Heathrow
Region United Kingdom
Timezone Europe/London (UTC+1.0)
Stats Elevation 83 ft / 25 m (AMSL)
Location 51.471200° -0.460881°
Runways 2
Magnetic Variation 0.154° W

METAR

EGLL 200750Z AUTO 04007KT 010V070 9999 NCD 16/13 Q1019 NOSIG

Decode

TAF

TAF EGLL 200456Z 2006/2112 04010KT CAVOK BECMG 2100/2103 6000 BKN006 PROB30 TEMPO 2103/2108 4000 BR BKN003 BECMG 2108/2111 CAVOK

Decode

Departure Runways

ID Width Length Bearing (true/mag) Surface Threshold Overrun Markings Lighting
09L 164 ft / 50 m 12,770 ft / 3,892 m 89.66° / 89.81° ASPHALT 1,007 ft / 307 m 0 ft / 0 m PREC-APP CENTERLINE EDGE THRESHOLD CALVERT-ILS TDZ REIL-OMNI
09R 164 ft / 50 m 11,975 ft / 3,650 m 89.68° / 89.83° ASPHALT 1,004 ft / 306 m 0 ft / 0 m PREC-APP CENTERLINE EDGE THRESHOLD CALVERT-ILS TDZ REIL-OMNI
27L 164 ft / 50 m 11,975 ft / 3,650 m 269.72° / 269.88° ASPHALT 0 ft / 0 m 95 ft / 29 m PREC-APP CENTERLINE EDGE THRESHOLD CALVERT-ILS TDZ REIL-OMNI
27R 164 ft / 50 m 12,770 ft / 3,892 m 269.70° / 269.86° ASPHALT 0 ft / 0 m 177 ft / 54 m PREC-APP CENTERLINE EDGE THRESHOLD CALVERT-ILS TDZ REIL-OMNI

EGLC

Details ICAO EGLC (LCY)
Name London City
Region United Kingdom
Timezone Europe/London (UTC+1.0)
Stats Elevation 19 ft / 6 m (AMSL)
Location 51.505200° 0.055183°
Runways 1
Magnetic Variation 0.020° E

METAR

EGLC 200820Z AUTO 06009KT 010V080 9999 NCD 17/13 Q1019

Decode

TAF

Not found

Destination Runways

ID Width Length Bearing (true/mag) Surface Threshold Overrun Markings Lighting
09 98 ft / 30 m 4,914 ft / 1,498 m 92.88° / 92.86° ASPHALT 308 ft / 94 m 190 ft / 58 m UK-PREC-APP CENTERLINE EDGE THRESHOLD MALS REIL-OMNI
27 98 ft / 30 m 4,914 ft / 1,498 m 272.90° / 272.88° ASPHALT 233 ft / 71 m 302 ft / 92 m UK-PREC-APP CENTERLINE EDGE THRESHOLD MALS REIL-OMNI

Approach Navaids

Runway Type Ident Frequency Range Bearing (true/mag) Slope Elevation
09 LOC-ILS ILST 111.15 MHz 18 nm / 33 km 92.89° / 92.87 ° - 19 ft / 6 m (AMSL)
09 GS ILST 111.15 MHz 10 nm / 19 km 92.87° / 92.85 ° 5.50° 19 ft / 6 m (AMSL)
09 DME ILST 111.15 MHz 18 nm / 33 km - - 48 ft / 15 m (AMSL)
27 DME ILSR 111.15 MHz 18 nm / 33 km - - 48 ft / 15 m (AMSL)
27 GS ILSR 111.15 MHz 10 nm / 19 km 272.87° / 272.85 ° 5.50° 19 ft / 6 m (AMSL)
27 LOC-ILS ILSR 111.15 MHz 18 nm / 33 km 272.89° / 272.87 ° - 19 ft / 6 m (AMSL)

Popular Alternatives